createdAt,value
2023-01-19T00:03:53.879Z,5.53
2023-01-19T00:08:57.267Z,5.63
2023-01-19T00:14:01.306Z,7.05
2023-01-19T00:19:10.852Z,6.60
2023-01-19T00:24:12.296Z,9.47
2023-01-19T00:29:23.630Z,7.60
2023-01-19T00:34:27.451Z,7.32
2023-01-19T00:39:38.002Z,8.43
2023-01-19T00:44:41.898Z,7.90
2023-01-19T00:49:48.581Z,7.57
2023-01-19T00:54:50.824Z,6.75
2023-01-19T00:59:53.657Z,6.82
2023-01-19T01:04:55.091Z,6.05
2023-01-19T01:10:02.481Z,7.57
2023-01-19T01:15:05.900Z,6.07
2023-01-19T01:20:07.935Z,7.00
2023-01-19T01:25:09.544Z,6.32
2023-01-19T01:35:41.963Z,6.13
2023-01-19T01:40:48.368Z,5.20
2023-01-19T01:45:49.897Z,4.85
2023-01-19T01:50:59.263Z,4.78
2023-01-19T01:56:03.478Z,6.33
2023-01-19T02:01:10.532Z,4.07
2023-01-19T02:06:13.027Z,4.40
2023-01-19T02:11:24.731Z,4.60
2023-01-19T02:16:26.429Z,4.13
2023-01-19T02:21:38.672Z,3.80
2023-01-19T02:26:47.726Z,4.07
2023-01-19T02:31:53.885Z,3.65
2023-01-19T02:37:01.431Z,4.22
2023-01-19T02:47:46.872Z,4.40
2023-01-19T02:52:49.603Z,4.05
2023-01-19T02:58:20.425Z,4.55
2023-01-19T03:03:53.063Z,5.00
2023-01-19T03:09:20.921Z,4.93
2023-01-19T03:14:28.745Z,4.35
2023-01-19T03:19:37.585Z,4.00
2023-01-19T03:24:44.960Z,4.47
2023-01-19T03:30:00.648Z,5.32
2023-01-19T03:35:07.105Z,4.97
2023-01-19T03:40:10.037Z,4.53
2023-01-19T03:45:13.807Z,4.22
2023-01-19T03:50:25.434Z,4.57
2023-01-19T03:55:27.090Z,4.22
2023-01-19T04:00:31.343Z,4.43
2023-01-19T04:05:33.402Z,4.18
2023-01-19T04:10:35.073Z,3.72
2023-01-19T04:15:40.040Z,3.58
2023-01-19T04:20:41.738Z,5.05
2023-01-19T04:25:43.395Z,3.90
2023-01-19T04:31:07.894Z,4.28
2023-01-19T04:36:09.476Z,4.85
2023-01-19T04:41:11.168Z,4.25
2023-01-19T04:46:12.804Z,5.25
2023-01-19T04:51:39.101Z,4.57
2023-01-19T04:56:40.922Z,3.92
2023-01-19T05:01:42.697Z,4.78
2023-01-19T05:06:44.229Z,4.03
2023-01-19T05:11:45.760Z,4.20
2023-01-19T05:16:47.260Z,4.30
2023-01-19T05:21:48.776Z,4.40
2023-01-19T05:26:50.359Z,3.88
2023-01-19T05:31:53.157Z,4.40
2023-01-19T05:36:57.650Z,4.60
2023-01-19T05:41:59.115Z,4.95
2023-01-19T05:47:00.626Z,5.20
2023-01-19T05:52:02.266Z,4.95
2023-01-19T05:57:03.671Z,5.40
2023-01-19T06:02:05.247Z,5.57
2023-01-19T06:07:14.357Z,5.72
2023-01-19T06:17:44.270Z,7.55
2023-01-19T06:22:53.457Z,6.47
2023-01-19T06:27:55.148Z,7.10
2023-01-19T06:32:59.190Z,6.53
2023-01-19T06:38:01.116Z,8.80
2023-01-19T06:43:02.974Z,6.95
2023-01-19T06:48:16.714Z,6.80
2023-01-19T06:53:21.336Z,6.13
2023-01-19T06:58:22.959Z,6.07
2023-01-19T07:03:24.390Z,5.45
2023-01-19T07:08:25.961Z,5.30
2023-01-19T07:13:28.252Z,6.47
2023-01-19T07:18:29.738Z,6.65
2023-01-19T07:23:31.323Z,6.75
2023-01-19T07:28:33.265Z,7.43
2023-01-19T07:33:34.761Z,8.35
2023-01-19T07:38:37.387Z,6.95
2023-01-19T07:43:48.169Z,7.63
2023-01-19T07:48:49.755Z,7.65
2023-01-19T07:53:53.074Z,8.65
2023-01-19T07:58:54.521Z,9.20
2023-01-19T08:04:04.628Z,7.65
2023-01-19T08:37:00.208Z,8.77
2023-01-19T08:49:10.199Z,9.13
2023-01-19T09:12:12.554Z,8.95
2023-01-19T09:17:23.367Z,9.95
2023-01-19T09:33:08.892Z,10.85
2023-01-19T09:50:20.019Z,11.32
2023-01-19T09:55:28.341Z,11.55
2023-01-19T10:00:31.319Z,14.80
2023-01-19T10:05:41.376Z,10.60
2023-01-19T10:16:53.078Z,12.88
2023-01-19T10:27:42.054Z,13.52
2023-01-19T10:32:59.834Z,12.40
2023-01-19T10:38:03.437Z,13.52
2023-01-19T10:49:13.765Z,11.88
2023-01-19T11:00:34.970Z,13.50
2023-01-19T11:05:48.987Z,13.07
2023-01-19T11:11:46.429Z,13.77
2023-01-19T11:33:44.277Z,13.50
2023-01-19T11:38:47.448Z,15.27
2023-01-19T11:43:54.820Z,12.90
2023-01-19T11:49:05.585Z,12.60
2023-01-19T11:54:21.086Z,12.50
2023-01-19T11:59:22.722Z,14.02
2023-01-19T12:04:38.343Z,11.40
2023-01-19T12:09:48.647Z,12.30
2023-01-19T12:15:24.136Z,10.95
2023-01-19T12:20:54.520Z,11.23
2023-01-19T12:31:10.565Z,11.18
2023-01-19T12:36:30.446Z,11.05
2023-01-19T12:41:38.604Z,9.82
2023-01-19T12:47:00.235Z,10.27
2023-01-19T12:52:31.478Z,12.02
2023-01-19T12:57:49.354Z,8.95
2023-01-19T13:02:54.848Z,11.48
2023-01-19T13:08:02.392Z,12.07
2023-01-19T13:13:25.788Z,10.23
2023-01-19T13:18:33.140Z,11.18
2023-01-19T13:23:49.953Z,11.27
2023-01-19T13:28:57.900Z,11.68
2023-01-19T13:34:01.820Z,10.65
2023-01-19T13:39:06.435Z,10.57
2023-01-19T13:44:43.163Z,10.23
2023-01-19T13:49:46.431Z,12.00
2023-01-19T13:55:04.211Z,11.63
2023-01-19T14:00:16.105Z,11.43
2023-01-19T14:05:35.263Z,13.00
2023-01-19T14:10:55.914Z,12.05
2023-01-19T14:16:00.749Z,12.98
2023-01-19T14:21:10.789Z,13.45
2023-01-19T14:26:46.160Z,11.13
2023-01-19T14:31:50.403Z,11.40
2023-01-19T14:36:51.903Z,10.95
2023-01-19T14:41:55.131Z,11.77
2023-01-19T14:46:57.438Z,10.50
2023-01-19T14:52:01.683Z,11.40
2023-01-19T14:57:03.163Z,10.25
2023-01-19T15:02:04.705Z,10.02
2023-01-19T15:07:06.862Z,8.80
2023-01-19T15:12:13.375Z,9.82
2023-01-19T15:17:22.604Z,8.98
2023-01-19T15:22:25.892Z,9.25
2023-01-19T15:27:29.283Z,9.38
2023-01-19T15:32:30.765Z,8.45
2023-01-19T15:37:32.235Z,9.18
2023-01-19T15:42:33.683Z,10.20
2023-01-19T15:47:35.273Z,8.43
2023-01-19T15:52:36.763Z,8.60
2023-01-19T15:57:38.464Z,7.35
2023-01-19T16:02:40.093Z,8.85
2023-01-19T16:07:41.621Z,7.75
2023-01-19T16:12:46.742Z,8.50
2023-01-19T16:17:48.255Z,10.23
2023-01-19T16:22:49.751Z,8.57
2023-01-19T16:27:51.390Z,9.15
2023-01-19T16:32:52.837Z,7.55
2023-01-19T16:37:54.635Z,7.32
2023-01-19T16:42:55.993Z,6.68
2023-01-19T16:47:59.988Z,7.05
2023-01-19T16:53:01.581Z,6.38
2023-01-19T16:58:03.048Z,7.07
2023-01-19T17:03:04.479Z,6.93
2023-01-19T17:08:06.049Z,5.90
2023-01-19T17:13:07.441Z,6.63
2023-01-19T17:18:08.908Z,6.65
2023-01-19T17:23:12.634Z,6.30
2023-01-19T17:28:13.995Z,6.75
2023-01-19T17:33:15.444Z,6.88
2023-01-19T17:38:17.201Z,5.72
2023-01-19T17:43:18.603Z,5.38
2023-01-19T17:48:19.961Z,5.75
2023-01-19T17:53:21.384Z,5.22
2023-01-19T17:58:22.978Z,5.78
2023-01-19T18:03:24.777Z,4.82
2023-01-19T18:08:26.142Z,4.82
2023-01-19T18:13:28.572Z,5.10
2023-01-19T18:18:30.067Z,5.18
2023-01-19T18:23:31.792Z,5.63
2023-01-19T18:28:33.731Z,5.38
2023-01-19T18:33:35.413Z,5.05
2023-01-19T18:38:38.474Z,6.55
2023-01-19T18:43:40.207Z,4.43
2023-01-19T18:48:41.833Z,4.13
2023-01-19T18:53:43.986Z,4.70
2023-01-19T18:58:45.535Z,4.78
2023-01-19T19:03:47.204Z,4.90
2023-01-19T19:08:50.797Z,4.72
2023-01-19T19:13:54.969Z,4.38
2023-01-19T19:18:59.092Z,5.15
2023-01-19T19:24:00.538Z,4.40
2023-01-19T19:29:02.015Z,4.28
2023-01-19T19:34:03.652Z,5.40
2023-01-19T19:39:05.630Z,4.72
2023-01-19T19:44:07.141Z,5.22
2023-01-19T19:49:08.837Z,4.68
2023-01-19T19:54:10.525Z,5.47
2023-01-19T19:59:11.991Z,5.03
2023-01-19T20:04:13.638Z,5.97
2023-01-19T20:09:16.183Z,6.35
2023-01-19T20:14:17.636Z,6.18
2023-01-19T20:19:19.017Z,6.57
2023-01-19T20:24:20.743Z,5.95
2023-01-19T20:29:22.192Z,7.38
2023-01-19T20:34:27.337Z,9.15
2023-01-19T20:39:29.043Z,7.68
2023-01-19T20:44:30.561Z,7.13
2023-01-19T20:49:32.354Z,6.72
2023-01-19T20:54:34.666Z,8.43
2023-01-19T20:59:36.175Z,9.15
2023-01-19T21:04:39.120Z,8.15
2023-01-19T21:09:40.477Z,8.68
2023-01-19T21:14:42.176Z,9.30
2023-01-19T21:24:49.071Z,6.80
2023-01-19T21:29:50.519Z,7.30
2023-01-19T21:34:52.033Z,7.70
2023-01-19T21:39:53.418Z,6.75
2023-01-19T21:49:56.332Z,6.57
2023-01-19T21:54:57.854Z,6.55
2023-01-19T21:59:59.325Z,6.93
2023-01-19T22:05:01.261Z,6.85
2023-01-19T22:10:03.046Z,7.22
2023-01-19T22:15:04.953Z,8.65
2023-01-19T22:20:07.106Z,7.10
2023-01-19T22:25:09.725Z,7.40
2023-01-19T22:30:11.284Z,7.07
2023-01-19T22:35:12.954Z,6.93
2023-01-19T22:40:14.928Z,7.60
2023-01-19T22:45:16.395Z,7.85
2023-01-19T22:50:17.971Z,6.88
2023-01-19T22:55:19.348Z,6.32
2023-01-19T23:00:21.632Z,6.40
2023-01-19T23:05:23.083Z,7.75
2023-01-19T23:10:24.651Z,6.13
2023-01-19T23:15:26.118Z,6.65
2023-01-19T23:20:27.515Z,6.82
2023-01-19T23:25:31.330Z,7.57
2023-01-19T23:30:32.773Z,7.13
2023-01-19T23:35:34.776Z,6.45
2023-01-19T23:40:36.164Z,7.93
2023-01-19T23:45:37.801Z,8.07
2023-01-19T23:50:40.281Z,6.90
2023-01-19T23:55:41.991Z,7.70
